sensor_id;sensor_type;location;lat;lon;timestamp;temperature;humidity
3602;DHT22;1815;50.950;6.920;2023-07-16T00:01:45;22.90;99.90
3602;DHT22;1815;50.950;6.920;2023-07-16T00:04:10;22.80;99.90
3602;DHT22;1815;50.950;6.920;2023-07-16T00:06:36;22.70;99.90
3602;DHT22;1815;50.950;6.920;2023-07-16T00:09:02;22.70;99.90
3602;DHT22;1815;50.950;6.920;2023-07-16T00:11:28;22.70;99.90
3602;DHT22;1815;50.950;6.920;2023-07-16T00:13:54;22.60;99.90
3602;DHT22;1815;50.950;6.920;2023-07-16T00:16:19;22.60;99.90
3602;DHT22;1815;50.950;6.920;2023-07-16T00:18:45;22.60;99.90
3602;DHT22;1815;50.950;6.920;2023-07-16T00:21:11;22.50;99.90
3602;DHT22;1815;50.950;6.920;2023-07-16T00:23:36;22.50;99.90
3602;DHT22;1815;50.950;6.920;2023-07-16T00:26:02;22.50;99.90
3602;DHT22;1815;50.950;6.920;2023-07-16T00:28:29;22.40;99.90
3602;DHT22;1815;50.950;6.920;2023-07-16T00:30:55;22.30;99.90
3602;DHT22;1815;50.950;6.920;2023-07-16T00:33:20;22.30;99.90
3602;DHT22;1815;50.950;6.920;2023-07-16T00:35:50;22.30;99.90
3602;DHT22;1815;50.950;6.920;2023-07-16T00:38:17;22.30;99.90
3602;DHT22;1815;50.950;6.920;2023-07-16T00:40:44;22.30;99.90
3602;DHT22;1815;50.950;6.920;2023-07-16T00:43:10;22.20;99.90
3602;DHT22;1815;50.950;6.920;2023-07-16T00:45:37;22.20;99.90
3602;DHT22;1815;50.950;6.920;2023-07-16T00:48:06;22.20;99.90
3602;DHT22;1815;50.950;6.920;2023-07-16T00:50:36;22.10;99.90
3602;DHT22;1815;50.950;6.920;2023-07-16T00:53:08;22.10;99.90
3602;DHT22;1815;50.950;6.920;2023-07-16T00:55:38;22.10;99.90
3602;DHT22;1815;50.950;6.920;2023-07-16T00:58:06;22.00;99.90
3602;DHT22;1815;50.950;6.920;2023-07-16T01:00:37;21.90;99.90
3602;DHT22;1815;50.950;6.920;2023-07-16T01:03:06;21.90;99.90
3602;DHT22;1815;50.950;6.920;2023-07-16T01:06:08;21.80;99.90
3602;DHT22;1815;50.950;6.920;2023-07-16T01:08:42;21.70;99.90
3602;DHT22;1815;50.950;6.920;2023-07-16T01:11:10;21.70;99.90
3602;DHT22;1815;50.950;6.920;2023-07-16T01:13:37;21.70;99.90
3602;DHT22;1815;50.950;6.920;2023-07-16T01:16:03;21.60;99.90
3602;DHT22;1815;50.950;6.920;2023-07-16T01:18:29;21.60;99.90
3602;DHT22;1815;50.950;6.920;2023-07-16T01:20:55;21.50;99.90
3602;DHT22;1815;50.950;6.920;2023-07-16T01:29:03;21.30;99.90
3602;DHT22;1815;50.950;6.920;2023-07-16T01:31:29;21.30;99.90
3602;DHT22;1815;50.950;6.920;2023-07-16T01:33:56;21.30;99.90
3602;DHT22;1815;50.950;6.920;2023-07-16T01:36:23;21.20;99.90
3602;DHT22;1815;50.950;6.920;2023-07-16T01:38:49;21.20;99.90
3602;DHT22;1815;50.950;6.920;2023-07-16T01:41:15;21.10;99.90
3602;DHT22;1815;50.950;6.920;2023-07-16T01:43:41;21.10;99.90
3602;DHT22;1815;50.950;6.920;2023-07-16T01:46:07;21.00;99.90
3602;DHT22;1815;50.950;6.920;2023-07-16T01:48:37;21.00;99.90
3602;DHT22;1815;50.950;6.920;2023-07-16T01:51:04;20.90;99.90
3602;DHT22;1815;50.950;6.920;2023-07-16T01:53:30;20.90;99.90
3602;DHT22;1815;50.950;6.920;2023-07-16T01:55:57;20.90;99.90
3602;DHT22;1815;50.950;6.920;2023-07-16T01:58:23;20.80;99.90
3602;DHT22;1815;50.950;6.920;2023-07-16T02:00:51;20.80;99.90
3602;DHT22;1815;50.950;6.920;2023-07-16T02:03:17;20.80;99.90
3602;DHT22;1815;50.950;6.920;2023-07-16T02:05:43;20.80;99.90
3602;DHT22;1815;50.950;6.920;2023-07-16T02:08:09;20.80;99.90
3602;DHT22;1815;50.950;6.920;2023-07-16T02:10:35;20.70;99.90
3602;DHT22;1815;50.950;6.920;2023-07-16T02:13:01;20.70;99.90
3602;DHT22;1815;50.950;6.920;2023-07-16T02:15:27;20.70;99.90
3602;DHT22;1815;50.950;6.920;2023-07-16T02:17:52;20.60;99.90
3602;DHT22;1815;50.950;6.920;2023-07-16T02:20:18;20.60;99.90
3602;DHT22;1815;50.950;6.920;2023-07-16T02:22:44;20.60;99.90
3602;DHT22;1815;50.950;6.920;2023-07-16T02:25:11;20.60;99.90
3602;DHT22;1815;50.950;6.920;2023-07-16T02:27:38;20.50;99.90
3602;DHT22;1815;50.950;6.920;2023-07-16T02:30:04;20.50;99.90
3602;DHT22;1815;50.950;6.920;2023-07-16T02:32:32;20.50;99.90
3602;DHT22;1815;50.950;6.920;2023-07-16T02:35:01;20.50;99.90
3602;DHT22;1815;50.950;6.920;2023-07-16T02:37:27;20.50;99.90
3602;DHT22;1815;50.950;6.920;2023-07-16T02:39:53;20.40;99.90
3602;DHT22;1815;50.950;6.920;2023-07-16T02:42:20;20.40;99.90
3602;DHT22;1815;50.950;6.920;2023-07-16T02:44:46;20.40;99.90
3602;DHT22;1815;50.950;6.920;2023-07-16T02:47:11;20.40;99.90
3602;DHT22;1815;50.950;6.920;2023-07-16T02:49:38;20.40;99.90
3602;DHT22;1815;50.950;6.920;2023-07-16T02:52:05;20.40;99.90
3602;DHT22;1815;50.950;6.920;2023-07-16T02:54:30;20.30;99.90
3602;DHT22;1815;50.950;6.920;2023-07-16T02:56:56;20.30;99.90
3602;DHT22;1815;50.950;6.920;2023-07-16T02:59:22;20.30;99.90
3602;DHT22;1815;50.950;6.920;2023-07-16T03:01:47;20.30;99.90
3602;DHT22;1815;50.950;6.920;2023-07-16T03:04:13;20.20;99.90
3602;DHT22;1815;50.950;6.920;2023-07-16T03:06:39;20.20;99.90
3602;DHT22;1815;50.950;6.920;2023-07-16T03:09:05;20.20;99.90
3602;DHT22;1815;50.950;6.920;2023-07-16T03:11:30;20.20;99.90
3602;DHT22;1815;50.950;6.920;2023-07-16T03:13:56;20.20;99.90
3602;DHT22;1815;50.950;6.920;2023-07-16T03:16:22;20.10;99.90
3602;DHT22;1815;50.950;6.920;2023-07-16T03:18:48;20.10;99.90
3602;DHT22;1815;50.950;6.920;2023-07-16T03:21:14;20.10;99.90
3602;DHT22;1815;50.950;6.920;2023-07-16T03:23:40;20.00;99.90
3602;DHT22;1815;50.950;6.920;2023-07-16T03:26:05;20.00;99.90
3602;DHT22;1815;50.950;6.920;2023-07-16T03:28:32;20.00;99.90
3602;DHT22;1815;50.950;6.920;2023-07-16T03:30:59;20.00;99.90
3602;DHT22;1815;50.950;6.920;2023-07-16T03:33:25;19.90;99.90
3602;DHT22;1815;50.950;6.920;2023-07-16T03:35:51;19.90;99.90
3602;DHT22;1815;50.950;6.920;2023-07-16T03:38:18;19.90;99.90
3602;DHT22;1815;50.950;6.920;2023-07-16T03:40:48;19.90;99.90
3602;DHT22;1815;50.950;6.920;2023-07-16T03:43:15;19.90;99.90
3602;DHT22;1815;50.950;6.920;2023-07-16T03:45:41;19.80;99.90
3602;DHT22;1815;50.950;6.920;2023-07-16T03:48:06;19.80;99.90
3602;DHT22;1815;50.950;6.920;2023-07-16T03:50:32;19.80;99.90
3602;DHT22;1815;50.950;6.920;2023-07-16T03:52:59;19.80;99.90
3602;DHT22;1815;50.950;6.920;2023-07-16T03:55:25;19.80;99.90
3602;DHT22;1815;50.950;6.920;2023-07-16T03:57:51;19.80;99.90
3602;DHT22;1815;50.950;6.920;2023-07-16T04:00:17;19.80;99.90
3602;DHT22;1815;50.950;6.920;2023-07-16T04:02:48;19.80;99.90
3602;DHT22;1815;50.950;6.920;2023-07-16T04:05:17;19.80;99.90
3602;DHT22;1815;50.950;6.920;2023-07-16T04:07:42;19.80;99.90
3602;DHT22;1815;50.950;6.920;2023-07-16T04:10:08;19.90;99.90
3602;DHT22;1815;50.950;6.920;2023-07-16T04:12:34;19.90;99.90
3602;DHT22;1815;50.950;6.920;2023-07-16T04:14:59;19.90;99.90
3602;DHT22;1815;50.950;6.920;2023-07-16T04:17:26;19.90;99.90
3602;DHT22;1815;50.950;6.920;2023-07-16T04:19:52;19.90;99.90
3602;DHT22;1815;50.950;6.920;2023-07-16T04:22:18;19.90;99.90
3602;DHT22;1815;50.950;6.920;2023-07-16T04:24:43;20.00;99.90
3602;DHT22;1815;50.950;6.920;2023-07-16T04:27:09;20.00;99.90
3602;DHT22;1815;50.950;6.920;2023-07-16T04:29:35;20.00;99.90
3602;DHT22;1815;50.950;6.920;2023-07-16T04:32:01;20.00;99.90
3602;DHT22;1815;50.950;6.920;2023-07-16T04:34:27;20.10;99.90
3602;DHT22;1815;50.950;6.920;2023-07-16T04:36:53;20.10;99.90
3602;DHT22;1815;50.950;6.920;2023-07-16T04:39:19;20.30;99.90
3602;DHT22;1815;50.950;6.920;2023-07-16T04:41:44;20.50;99.90
3602;DHT22;1815;50.950;6.920;2023-07-16T04:44:10;20.60;99.90
3602;DHT22;1815;50.950;6.920;2023-07-16T04:46:36;20.70;99.90
3602;DHT22;1815;50.950;6.920;2023-07-16T04:49:02;20.70;99.90
3602;DHT22;1815;50.950;6.920;2023-07-16T04:51:28;20.80;99.90
3602;DHT22;1815;50.950;6.920;2023-07-16T04:53:54;20.90;99.90
3602;DHT22;1815;50.950;6.920;2023-07-16T04:56:19;21.00;99.90
3602;DHT22;1815;50.950;6.920;2023-07-16T04:58:45;21.10;99.90
3602;DHT22;1815;50.950;6.920;2023-07-16T05:01:11;21.30;99.90
3602;DHT22;1815;50.950;6.920;2023-07-16T05:03:37;21.60;99.90
3602;DHT22;1815;50.950;6.920;2023-07-16T05:06:04;21.70;99.90
3602;DHT22;1815;50.950;6.920;2023-07-16T05:08:30;21.80;99.90
3602;DHT22;1815;50.950;6.920;2023-07-16T05:10:55;21.90;99.90
3602;DHT22;1815;50.950;6.920;2023-07-16T05:13:21;22.10;99.90
3602;DHT22;1815;50.950;6.920;2023-07-16T05:15:47;22.20;99.90
3602;DHT22;1815;50.950;6.920;2023-07-16T05:18:13;22.30;99.90
3602;DHT22;1815;50.950;6.920;2023-07-16T05:20:38;22.30;99.90
3602;DHT22;1815;50.950;6.920;2023-07-16T05:23:04;22.30;99.90
3602;DHT22;1815;50.950;6.920;2023-07-16T05:25:30;22.30;99.90
3602;DHT22;1815;50.950;6.920;2023-07-16T05:27:56;22.40;99.90
3602;DHT22;1815;50.950;6.920;2023-07-16T05:30:22;22.40;99.90
3602;DHT22;1815;50.950;6.920;2023-07-16T05:32:48;22.40;99.90
3602;DHT22;1815;50.950;6.920;2023-07-16T05:35:13;22.50;99.90
3602;DHT22;1815;50.950;6.920;2023-07-16T05:37:39;22.40;99.90
3602;DHT22;1815;50.950;6.920;2023-07-16T05:40:05;22.40;99.90
3602;DHT22;1815;50.950;6.920;2023-07-16T05:42:34;22.40;99.90
3602;DHT22;1815;50.950;6.920;2023-07-16T05:44:59;22.40;99.90
3602;DHT22;1815;50.950;6.920;2023-07-16T05:47:26;22.40;99.90
3602;DHT22;1815;50.950;6.920;2023-07-16T05:49:52;22.50;99.90
3602;DHT22;1815;50.950;6.920;2023-07-16T05:52:17;22.50;99.90
3602;DHT22;1815;50.950;6.920;2023-07-16T05:54:44;22.60;99.90
3602;DHT22;1815;50.950;6.920;2023-07-16T05:57:13;22.90;99.90
3602;DHT22;1815;50.950;6.920;2023-07-16T05:59:39;23.20;99.90
3602;DHT22;1815;50.950;6.920;2023-07-16T06:02:26;23.70;99.90
3602;DHT22;1815;50.950;6.920;2023-07-16T06:04:59;24.30;99.90
3602;DHT22;1815;50.950;6.920;2023-07-16T06:07:43;25.50;99.90
3602;DHT22;1815;50.950;6.920;2023-07-16T06:10:09;26.70;99.90
3602;DHT22;1815;50.950;6.920;2023-07-16T06:12:35;27.70;99.90
3602;DHT22;1815;50.950;6.920;2023-07-16T06:15:01;28.70;99.90
3602;DHT22;1815;50.950;6.920;2023-07-16T06:17:26;29.60;99.90
3602;DHT22;1815;50.950;6.920;2023-07-16T06:19:52;30.40;99.90
3602;DHT22;1815;50.950;6.920;2023-07-16T06:22:18;31.20;99.90
3602;DHT22;1815;50.950;6.920;2023-07-16T06:24:43;32.00;99.90
3602;DHT22;1815;50.950;6.920;2023-07-16T06:27:09;32.80;99.90
3602;DHT22;1815;50.950;6.920;2023-07-16T06:29:35;33.50;99.70
3602;DHT22;1815;50.950;6.920;2023-07-16T06:32:00;34.20;97.90
3602;DHT22;1815;50.950;6.920;2023-07-16T06:34:26;34.80;95.80
3602;DHT22;1815;50.950;6.920;2023-07-16T06:36:52;35.30;93.30
3602;DHT22;1815;50.950;6.920;2023-07-16T06:39:18;35.70;91.80
3602;DHT22;1815;50.950;6.920;2023-07-16T06:41:44;36.10;88.90
3602;DHT22;1815;50.950;6.920;2023-07-16T06:44:10;36.40;84.50
3602;DHT22;1815;50.950;6.920;2023-07-16T06:46:35;36.70;81.60
3602;DHT22;1815;50.950;6.920;2023-07-16T06:49:38;37.00;78.00
3602;DHT22;1815;50.950;6.920;2023-07-16T06:52:04;37.20;70.90
3602;DHT22;1815;50.950;6.920;2023-07-16T06:54:30;37.70;72.50
3602;DHT22;1815;50.950;6.920;2023-07-16T06:56:56;37.90;68.70
3602;DHT22;1815;50.950;6.920;2023-07-16T06:59:21;38.10;66.40
3602;DHT22;1815;50.950;6.920;2023-07-16T07:01:47;38.30;63.90
3602;DHT22;1815;50.950;6.920;2023-07-16T07:04:13;38.30;61.00
3602;DHT22;1815;50.950;6.920;2023-07-16T07:06:38;38.40;59.30
3602;DHT22;1815;50.950;6.920;2023-07-16T07:09:04;38.40;57.80
3602;DHT22;1815;50.950;6.920;2023-07-16T07:11:31;38.30;56.10
3602;DHT22;1815;50.950;6.920;2023-07-16T07:13:57;38.30;55.20
3602;DHT22;1815;50.950;6.920;2023-07-16T07:16:23;38.30;54.90
3602;DHT22;1815;50.950;6.920;2023-07-16T07:18:49;38.40;53.70
3602;DHT22;1815;50.950;6.920;2023-07-16T07:21:15;38.50;53.30
3602;DHT22;1815;50.950;6.920;2023-07-16T07:23:40;38.60;52.40
3602;DHT22;1815;50.950;6.920;2023-07-16T07:26:06;38.80;51.70
3602;DHT22;1815;50.950;6.920;2023-07-16T07:28:32;38.90;51.60
3602;DHT22;1815;50.950;6.920;2023-07-16T07:30:57;39.00;50.40
3602;DHT22;1815;50.950;6.920;2023-07-16T07:33:24;39.20;50.50
3602;DHT22;1815;50.950;6.920;2023-07-16T07:35:53;39.30;49.10
3602;DHT22;1815;50.950;6.920;2023-07-16T07:38:20;39.40;48.40
3602;DHT22;1815;50.950;6.920;2023-07-16T07:40:46;39.70;48.30
3602;DHT22;1815;50.950;6.920;2023-07-16T07:43:12;39.70;47.90
3602;DHT22;1815;50.950;6.920;2023-07-16T07:45:37;39.90;47.60
3602;DHT22;1815;50.950;6.920;2023-07-16T07:48:03;40.10;46.10
3602;DHT22;1815;50.950;6.920;2023-07-16T07:50:29;40.20;45.90
3602;DHT22;1815;50.950;6.920;2023-07-16T07:52:55;40.40;45.20
3602;DHT22;1815;50.950;6.920;2023-07-16T07:55:20;40.50;44.40
3602;DHT22;1815;50.950;6.920;2023-07-16T07:57:46;40.50;43.20
3602;DHT22;1815;50.950;6.920;2023-07-16T08:00:12;40.50;42.80
3602;DHT22;1815;50.950;6.920;2023-07-16T08:02:38;40.50;42.40
3602;DHT22;1815;50.950;6.920;2023-07-16T08:05:04;40.60;42.20
3602;DHT22;1815;50.950;6.920;2023-07-16T08:07:30;40.60;41.10
3602;DHT22;1815;50.950;6.920;2023-07-16T08:09:56;40.60;40.70
3602;DHT22;1815;50.950;6.920;2023-07-16T08:12:21;40.70;41.00
3602;DHT22;1815;50.950;6.920;2023-07-16T08:14:48;40.90;40.90
3602;DHT22;1815;50.950;6.920;2023-07-16T08:17:13;40.90;40.20
3602;DHT22;1815;50.950;6.920;2023-07-16T08:19:39;40.90;39.60
3602;DHT22;1815;50.950;6.920;2023-07-16T08:22:05;41.00;39.10
3602;DHT22;1815;50.950;6.920;2023-07-16T08:24:31;41.00;38.90
3602;DHT22;1815;50.950;6.920;2023-07-16T08:26:56;41.00;37.70
3602;DHT22;1815;50.950;6.920;2023-07-16T08:29:22;41.00;37.70
3602;DHT22;1815;50.950;6.920;2023-07-16T08:31:48;41.00;37.30
3602;DHT22;1815;50.950;6.920;2023-07-16T08:34:14;41.00;36.70
3602;DHT22;1815;50.950;6.920;2023-07-16T08:36:39;41.00;36.90
3602;DHT22;1815;50.950;6.920;2023-07-16T08:39:05;41.00;36.40
3602;DHT22;1815;50.950;6.920;2023-07-16T08:41:33;40.80;35.70
3602;DHT22;1815;50.950;6.920;2023-07-16T08:43:58;40.60;35.30
3602;DHT22;1815;50.950;6.920;2023-07-16T08:46:24;40.30;35.40
3602;DHT22;1815;50.950;6.920;2023-07-16T08:48:50;40.30;35.70
3602;DHT22;1815;50.950;6.920;2023-07-16T08:51:17;40.30;35.40
3602;DHT22;1815;50.950;6.920;2023-07-16T08:53:44;40.20;35.20
3602;DHT22;1815;50.950;6.920;2023-07-16T08:56:10;40.10;35.10
3602;DHT22;1815;50.950;6.920;2023-07-16T08:58:36;40.10;35.10
3602;DHT22;1815;50.950;6.920;2023-07-16T09:01:04;40.20;35.20
3602;DHT22;1815;50.950;6.920;2023-07-16T09:03:30;40.10;34.50
3602;DHT22;1815;50.950;6.920;2023-07-16T09:05:56;40.10;34.70
3602;DHT22;1815;50.950;6.920;2023-07-16T09:08:22;39.70;34.10
3602;DHT22;1815;50.950;6.920;2023-07-16T09:10:57;39.10;33.60
3602;DHT22;1815;50.950;6.920;2023-07-16T09:13:24;38.80;34.00
3602;DHT22;1815;50.950;6.920;2023-07-16T09:15:54;38.40;34.00
3602;DHT22;1815;50.950;6.920;2023-07-16T09:18:21;37.90;34.10
3602;DHT22;1815;50.950;6.920;2023-07-16T09:20:57;37.60;34.40
3602;DHT22;1815;50.950;6.920;2023-07-16T09:23:25;37.60;35.10
3602;DHT22;1815;50.950;6.920;2023-07-16T09:25:52;37.80;35.40
3602;DHT22;1815;50.950;6.920;2023-07-16T09:28:20;38.00;35.50
3602;DHT22;1815;50.950;6.920;2023-07-16T09:30:47;38.20;35.50
3602;DHT22;1815;50.950;6.920;2023-07-16T09:33:18;38.50;35.60
3602;DHT22;1815;50.950;6.920;2023-07-16T09:35:50;38.70;35.30
3602;DHT22;1815;50.950;6.920;2023-07-16T09:38:17;38.70;34.40
3602;DHT22;1815;50.950;6.920;2023-07-16T09:40:46;38.50;34.10
3602;DHT22;1815;50.950;6.920;2023-07-16T09:43:13;38.50;34.50
3602;DHT22;1815;50.950;6.920;2023-07-16T09:45:38;38.50;34.60
3602;DHT22;1815;50.950;6.920;2023-07-16T09:48:05;38.30;34.40
3602;DHT22;1815;50.950;6.920;2023-07-16T09:50:35;38.20;34.20
3602;DHT22;1815;50.950;6.920;2023-07-16T09:53:04;38.10;34.30
3602;DHT22;1815;50.950;6.920;2023-07-16T09:55:35;38.10;34.70
3602;DHT22;1815;50.950;6.920;2023-07-16T09:58:04;38.00;34.40
3602;DHT22;1815;50.950;6.920;2023-07-16T10:00:32;37.70;34.40
3602;DHT22;1815;50.950;6.920;2023-07-16T10:02:59;37.40;34.30
3602;DHT22;1815;50.950;6.920;2023-07-16T10:05:28;37.10;34.50
3602;DHT22;1815;50.950;6.920;2023-07-16T10:07:55;36.80;34.50
3602;DHT22;1815;50.950;6.920;2023-07-16T10:10:26;36.50;34.60
3602;DHT22;1815;50.950;6.920;2023-07-16T10:13:03;36.30;35.10
3602;DHT22;1815;50.950;6.920;2023-07-16T10:15:29;36.30;35.60
3602;DHT22;1815;50.950;6.920;2023-07-16T10:17:55;36.30;35.90
3602;DHT22;1815;50.950;6.920;2023-07-16T10:20:29;36.10;35.20
3602;DHT22;1815;50.950;6.920;2023-07-16T10:22:55;36.00;35.20
3602;DHT22;1815;50.950;6.920;2023-07-16T10:25:22;36.00;35.90
3602;DHT22;1815;50.950;6.920;2023-07-16T10:27:49;35.90;35.70
3602;DHT22;1815;50.950;6.920;2023-07-16T10:30:16;35.80;35.40
3602;DHT22;1815;50.950;6.920;2023-07-16T10:32:42;35.60;35.40
3602;DHT22;1815;50.950;6.920;2023-07-16T10:35:08;35.70;35.90
3602;DHT22;1815;50.950;6.920;2023-07-16T10:37:34;35.90;35.90
3602;DHT22;1815;50.950;6.920;2023-07-16T10:40:01;36.00;35.90
3602;DHT22;1815;50.950;6.920;2023-07-16T10:42:28;35.90;35.30
3602;DHT22;1815;50.950;6.920;2023-07-16T10:44:57;35.70;34.90
3602;DHT22;1815;50.950;6.920;2023-07-16T10:47:34;35.30;34.50
3602;DHT22;1815;50.950;6.920;2023-07-16T10:50:03;34.80;35.00
3602;DHT22;1815;50.950;6.920;2023-07-16T10:52:29;34.40;34.60
3602;DHT22;1815;50.950;6.920;2023-07-16T10:54:55;34.00;34.90
3602;DHT22;1815;50.950;6.920;2023-07-16T10:57:25;33.70;35.20
3602;DHT22;1815;50.950;6.920;2023-07-16T10:59:51;33.40;35.60
3602;DHT22;1815;50.950;6.920;2023-07-16T11:02:18;33.10;35.80
3602;DHT22;1815;50.950;6.920;2023-07-16T11:04:45;32.80;35.90
3602;DHT22;1815;50.950;6.920;2023-07-16T11:07:12;32.70;36.10
3602;DHT22;1815;50.950;6.920;2023-07-16T11:09:53;32.60;36.60
3602;DHT22;1815;50.950;6.920;2023-07-16T11:12:21;32.60;36.30
3602;DHT22;1815;50.950;6.920;2023-07-16T11:14:52;32.60;36.60
3602;DHT22;1815;50.950;6.920;2023-07-16T11:17:19;32.40;36.70
3602;DHT22;1815;50.950;6.920;2023-07-16T11:19:51;32.40;36.90
3602;DHT22;1815;50.950;6.920;2023-07-16T11:22:17;32.30;37.00
3602;DHT22;1815;50.950;6.920;2023-07-16T11:24:50;32.30;37.10
3602;DHT22;1815;50.950;6.920;2023-07-16T11:27:17;32.30;37.10
3602;DHT22;1815;50.950;6.920;2023-07-16T11:29:58;32.30;37.10
3602;DHT22;1815;50.950;6.920;2023-07-16T11:32:32;32.10;36.60
3602;DHT22;1815;50.950;6.920;2023-07-16T11:34:59;32.10;37.20
3602;DHT22;1815;50.950;6.920;2023-07-16T11:37:26;32.00;37.40
3602;DHT22;1815;50.950;6.920;2023-07-16T11:39:58;31.90;37.40
3602;DHT22;1815;50.950;6.920;2023-07-16T11:42:38;32.10;37.80
3602;DHT22;1815;50.950;6.920;2023-07-16T11:45:05;32.20;37.50
3602;DHT22;1815;50.950;6.920;2023-07-16T11:47:33;32.30;37.60
3602;DHT22;1815;50.950;6.920;2023-07-16T11:54:09;32.30;37.70
3602;DHT22;1815;50.950;6.920;2023-07-16T11:56:35;32.10;37.10
3602;DHT22;1815;50.950;6.920;2023-07-16T11:59:02;32.00;37.20
3602;DHT22;1815;50.950;6.920;2023-07-16T12:01:27;31.70;37.10
3602;DHT22;1815;50.950;6.920;2023-07-16T12:03:53;31.60;37.20
3602;DHT22;1815;50.950;6.920;2023-07-16T12:06:19;31.40;37.40
3602;DHT22;1815;50.950;6.920;2023-07-16T12:08:44;31.30;37.60
3602;DHT22;1815;50.950;6.920;2023-07-16T12:11:10;31.30;38.20
3602;DHT22;1815;50.950;6.920;2023-07-16T12:13:36;31.40;38.40
3602;DHT22;1815;50.950;6.920;2023-07-16T12:16:01;31.40;38.50
3602;DHT22;1815;50.950;6.920;2023-07-16T12:18:27;31.50;38.40
3602;DHT22;1815;50.950;6.920;2023-07-16T12:20:55;31.40;38.00
3602;DHT22;1815;50.950;6.920;2023-07-16T12:23:21;31.40;37.80
3602;DHT22;1815;50.950;6.920;2023-07-16T12:25:48;31.30;38.10
3602;DHT22;1815;50.950;6.920;2023-07-16T12:28:14;31.30;38.30
3602;DHT22;1815;50.950;6.920;2023-07-16T12:30:39;31.30;38.40
3602;DHT22;1815;50.950;6.920;2023-07-16T12:33:06;31.20;38.20
3602;DHT22;1815;50.950;6.920;2023-07-16T12:35:31;31.20;38.20
3602;DHT22;1815;50.950;6.920;2023-07-16T12:37:57;31.20;38.50
3602;DHT22;1815;50.950;6.920;2023-07-16T12:40:24;31.20;38.40
3602;DHT22;1815;50.950;6.920;2023-07-16T12:42:50;31.20;38.40
3602;DHT22;1815;50.950;6.920;2023-07-16T12:45:16;31.10;38.30
3602;DHT22;1815;50.950;6.920;2023-07-16T12:47:41;31.10;38.70
3602;DHT22;1815;50.950;6.920;2023-07-16T12:50:07;31.20;38.80
3602;DHT22;1815;50.950;6.920;2023-07-16T12:52:33;31.20;38.70
3602;DHT22;1815;50.950;6.920;2023-07-16T12:54:59;31.10;38.60
3602;DHT22;1815;50.950;6.920;2023-07-16T12:57:25;31.10;38.30
3602;DHT22;1815;50.950;6.920;2023-07-16T12:59:51;31.00;38.30
3602;DHT22;1815;50.950;6.920;2023-07-16T13:02:16;30.90;38.40
3602;DHT22;1815;50.950;6.920;2023-07-16T13:04:42;30.90;38.50
3602;DHT22;1815;50.950;6.920;2023-07-16T13:07:08;30.80;38.50
3602;DHT22;1815;50.950;6.920;2023-07-16T13:09:34;30.70;38.40
3602;DHT22;1815;50.950;6.920;2023-07-16T13:11:59;30.70;38.60
3602;DHT22;1815;50.950;6.920;2023-07-16T13:14:26;30.60;38.70
3602;DHT22;1815;50.950;6.920;2023-07-16T13:16:51;30.60;38.80
3602;DHT22;1815;50.950;6.920;2023-07-16T13:19:17;30.60;38.80
3602;DHT22;1815;50.950;6.920;2023-07-16T13:21:43;30.50;38.80
3602;DHT22;1815;50.950;6.920;2023-07-16T13:24:09;30.40;38.80
3602;DHT22;1815;50.950;6.920;2023-07-16T13:26:35;30.40;39.00
3602;DHT22;1815;50.950;6.920;2023-07-16T13:29:01;30.40;39.10
3602;DHT22;1815;50.950;6.920;2023-07-16T13:31:26;30.30;39.00
3602;DHT22;1815;50.950;6.920;2023-07-16T13:33:52;30.30;39.00
3602;DHT22;1815;50.950;6.920;2023-07-16T13:36:18;30.20;39.20
3602;DHT22;1815;50.950;6.920;2023-07-16T13:38:43;30.20;39.10
3602;DHT22;1815;50.950;6.920;2023-07-16T13:41:09;30.10;39.00
3602;DHT22;1815;50.950;6.920;2023-07-16T13:43:35;30.10;39.10
3602;DHT22;1815;50.950;6.920;2023-07-16T13:46:01;30.10;39.20
3602;DHT22;1815;50.950;6.920;2023-07-16T13:48:27;30.00;39.20
3602;DHT22;1815;50.950;6.920;2023-07-16T13:50:52;29.90;39.10
3602;DHT22;1815;50.950;6.920;2023-07-16T13:53:18;29.90;39.20
3602;DHT22;1815;50.950;6.920;2023-07-16T13:55:44;29.80;39.10
3602;DHT22;1815;50.950;6.920;2023-07-16T13:58:10;29.70;39.20
3602;DHT22;1815;50.950;6.920;2023-07-16T14:00:36;29.70;39.30
3602;DHT22;1815;50.950;6.920;2023-07-16T14:03:02;29.70;39.40
3602;DHT22;1815;50.950;6.920;2023-07-16T14:05:28;29.70;39.40
3602;DHT22;1815;50.950;6.920;2023-07-16T14:07:54;29.70;39.30
3602;DHT22;1815;50.950;6.920;2023-07-16T14:10:20;29.60;39.20
3602;DHT22;1815;50.950;6.920;2023-07-16T14:12:45;29.60;39.20
3602;DHT22;1815;50.950;6.920;2023-07-16T14:15:11;29.50;39.30
3602;DHT22;1815;50.950;6.920;2023-07-16T14:17:37;29.50;39.30
3602;DHT22;1815;50.950;6.920;2023-07-16T14:20:03;29.50;39.40
3602;DHT22;1815;50.950;6.920;2023-07-16T14:22:29;29.40;39.50
3602;DHT22;1815;50.950;6.920;2023-07-16T14:24:55;29.50;39.90
3602;DHT22;1815;50.950;6.920;2023-07-16T14:27:21;29.70;40.00
3602;DHT22;1815;50.950;6.920;2023-07-16T14:29:46;29.80;39.90
3602;DHT22;1815;50.950;6.920;2023-07-16T14:32:12;29.90;39.80
3602;DHT22;1815;50.950;6.920;2023-07-16T14:34:38;29.80;39.60
3602;DHT22;1815;50.950;6.920;2023-07-16T14:37:04;29.80;39.40
3602;DHT22;1815;50.950;6.920;2023-07-16T14:39:30;29.80;39.30
3602;DHT22;1815;50.950;6.920;2023-07-16T14:41:55;29.90;39.50
3602;DHT22;1815;50.950;6.920;2023-07-16T14:44:21;29.90;39.50
3602;DHT22;1815;50.950;6.920;2023-07-16T14:46:47;29.90;39.60
3602;DHT22;1815;50.950;6.920;2023-07-16T14:49:12;29.90;39.60
3602;DHT22;1815;50.950;6.920;2023-07-16T14:51:38;29.90;39.50
3602;DHT22;1815;50.950;6.920;2023-07-16T14:54:09;29.90;39.40
3602;DHT22;1815;50.950;6.920;2023-07-16T14:56:35;29.80;39.40
3602;DHT22;1815;50.950;6.920;2023-07-16T14:59:01;29.70;39.50
3602;DHT22;1815;50.950;6.920;2023-07-16T15:01:27;29.70;39.50
3602;DHT22;1815;50.950;6.920;2023-07-16T15:03:53;29.60;39.60
3602;DHT22;1815;50.950;6.920;2023-07-16T15:06:18;29.60;39.70
3602;DHT22;1815;50.950;6.920;2023-07-16T15:08:44;29.60;39.70
3602;DHT22;1815;50.950;6.920;2023-07-16T15:11:10;29.60;39.70
3602;DHT22;1815;50.950;6.920;2023-07-16T15:13:36;29.60;39.70
3602;DHT22;1815;50.950;6.920;2023-07-16T15:16:01;29.60;39.60
3602;DHT22;1815;50.950;6.920;2023-07-16T15:18:29;29.60;39.70
3602;DHT22;1815;50.950;6.920;2023-07-16T15:21:01;29.60;39.70
3602;DHT22;1815;50.950;6.920;2023-07-16T15:23:28;29.70;39.80
3602;DHT22;1815;50.950;6.920;2023-07-16T15:26:01;29.70;39.80
3602;DHT22;1815;50.950;6.920;2023-07-16T15:28:27;29.80;39.70
3602;DHT22;1815;50.950;6.920;2023-07-16T15:30:53;29.80;39.70
3602;DHT22;1815;50.950;6.920;2023-07-16T15:33:19;29.70;39.60
3602;DHT22;1815;50.950;6.920;2023-07-16T15:35:44;29.70;39.70
3602;DHT22;1815;50.950;6.920;2023-07-16T15:38:10;29.60;39.60
3602;DHT22;1815;50.950;6.920;2023-07-16T15:40:36;29.50;39.60
3602;DHT22;1815;50.950;6.920;2023-07-16T15:43:01;29.50;39.70
3602;DHT22;1815;50.950;6.920;2023-07-16T15:45:28;29.40;39.80
3602;DHT22;1815;50.950;6.920;2023-07-16T15:47:53;29.40;39.90
3602;DHT22;1815;50.950;6.920;2023-07-16T15:50:24;29.40;40.00
3602;DHT22;1815;50.950;6.920;2023-07-16T15:52:50;29.40;40.00
3602;DHT22;1815;50.950;6.920;2023-07-16T15:55:16;29.40;40.00
3602;DHT22;1815;50.950;6.920;2023-07-16T15:57:42;29.40;40.10
3602;DHT22;1815;50.950;6.920;2023-07-16T16:00:09;29.30;40.10
3602;DHT22;1815;50.950;6.920;2023-07-16T16:02:46;29.30;40.10
3602;DHT22;1815;50.950;6.920;2023-07-16T16:05:12;29.30;40.20
3602;DHT22;1815;50.950;6.920;2023-07-16T16:08:14;29.30;40.20
3602;DHT22;1815;50.950;6.920;2023-07-16T16:10:45;29.30;40.50